Time;durP1;ratioP1;P1;durP2;ratioP2;P2;SDS_P1;SDS_P2;PMS_P1;PMS_P2;Temp;Humidity;BMP_temperature;BMP_pressure;BME280_temperature;BME280_humidity;BME280_pressure;Samples;Min_cycle;Max_cycle;Signal;HPM_P1;HPM_P2
2023/07/30 00:01:11;;;;;;;5.90;4.65;;;;;;;;;;6276235;22;20010;-81
2023/07/30 00:03:36;;;;;;;8.55;4.43;;;;;;;;;;6249852;22;20082;-80
2023/07/30 00:06:02;;;;;;;6.72;4.57;;;;;;;;;;6281219;22;20003;-80
2023/07/30 00:08:28;;;;;;;5.18;4.47;;;;;;;;;;6277524;22;20006;-80
2023/07/30 00:10:56;;;;;;;9.52;4.88;;;;;;;;;;6276222;22;20061;-81
2023/07/30 00:13:22;;;;;;;6.43;4.07;;;;;;;;;;6250310;22;20026;-80
2023/07/30 00:15:47;;;;;;;6.18;4.70;;;;;;;;;;6250371;22;19999;-80
2023/07/30 00:18:13;;;;;;;6.28;4.15;;;;;;;;;;6276801;22;20011;-80
2023/07/30 00:20:39;;;;;;;4.60;3.80;;;;;;;;;;6277235;22;20315;-80
2023/07/30 00:23:04;;;;;;;6.53;4.20;;;;;;;;;;6278314;22;20007;-81
2023/07/30 00:25:31;;;;;;;6.60;4.22;;;;;;;;;;6251758;22;20003;-80
2023/07/30 00:27:56;;;;;;;5.72;3.72;;;;;;;;;;6282723;22;20000;-79
2023/07/30 00:30:22;;;;;;;5.63;3.95;;;;;;;;;;6284689;22;19999;-80
2023/07/30 00:32:47;;;;;;;8.25;4.10;;;;;;;;;;6287320;22;20000;-80
2023/07/30 00:35:14;;;;;;;5.70;3.88;;;;;;;;;;6286893;22;20000;-81
2023/07/30 00:37:39;;;;;;;9.52;4.10;;;;;;;;;;6297690;22;19999;-83
2023/07/30 00:40:05;;;;;;;4.03;3.63;;;;;;;;;;6257753;22;20031;-80
2023/07/30 00:42:31;;;;;;;3.95;3.55;;;;;;;;;;6252153;22;20063;-81
2023/07/30 00:44:56;;;;;;;5.70;3.95;;;;;;;;;;6276642;22;20015;-81
2023/07/30 00:47:22;;;;;;;5.53;4.03;;;;;;;;;;6249369;22;19995;-80
2023/07/30 00:49:48;;;;;;;5.72;3.50;;;;;;;;;;6276435;22;20008;-81
2023/07/30 00:52:14;;;;;;;5.68;3.72;;;;;;;;;;6254514;22;20008;-80
2023/07/30 00:54:39;;;;;;;4.10;3.63;;;;;;;;;;6249619;22;20023;-78
2023/07/30 00:57:06;;;;;;;9.20;3.97;;;;;;;;;;6276291;22;20011;-81
2023/07/30 00:59:32;;;;;;;5.03;3.97;;;;;;;;;;6249108;22;20022;-80
2023/07/30 01:01:58;;;;;;;6.78;3.75;;;;;;;;;;6276053;22;20423;-80
2023/07/30 01:04:23;;;;;;;5.22;3.80;;;;;;;;;;6223460;22;20003;-80
2023/07/30 01:06:49;;;;;;;4.00;3.60;;;;;;;;;;6249199;22;20330;-80
2023/07/30 01:09:14;;;;;;;4.65;4.13;;;;;;;;;;6249085;22;19999;-80
2023/07/30 01:11:39;;;;;;;7.50;3.58;;;;;;;;;;6275993;22;20086;-81
2023/07/30 01:14:05;;;;;;;4.65;4.13;;;;;;;;;;6250625;22;19995;-79
2023/07/30 01:16:31;;;;;;;5.10;3.55;;;;;;;;;;6249787;22;20418;-79
2023/07/30 01:18:58;;;;;;;5.53;4.05;;;;;;;;;;6276064;22;20117;-80
2023/07/30 01:21:24;;;;;;;8.43;4.03;;;;;;;;;;6275578;22;20448;-79
2023/07/30 01:23:49;;;;;;;5.22;3.55;;;;;;;;;;6275474;22;20004;-80
2023/07/30 01:26:23;;;;;;;4.85;3.83;;;;;;;;;;6275996;22;20006;-80
2023/07/30 01:28:49;;;;;;;4.22;3.75;;;;;;;;;;6223216;22;20083;-80
2023/07/30 01:31:15;;;;;;;4.85;3.80;;;;;;;;;;6248745;22;20057;-80
2023/07/30 01:33:41;;;;;;;6.15;3.75;;;;;;;;;;6223345;22;20083;-79
2023/07/30 01:36:06;;;;;;;5.43;3.78;;;;;;;;;;6224239;22;20000;-80
2023/07/30 01:38:32;;;;;;;4.63;3.65;;;;;;;;;;6229323;22;20075;-79
2023/07/30 01:40:57;;;;;;;6.60;4.25;;;;;;;;;;6248787;22;20000;-80
2023/07/30 01:43:23;;;;;;;5.13;3.78;;;;;;;;;;6248695;22;20011;-79
2023/07/30 01:45:48;;;;;;;4.80;3.95;;;;;;;;;;6248700;22;20011;-80
2023/07/30 01:48:14;;;;;;;6.63;3.80;;;;;;;;;;6275635;22;20008;-80
2023/07/30 01:50:39;;;;;;;11.55;3.95;;;;;;;;;;6247691;22;20358;-80
2023/07/30 01:53:04;;;;;;;5.95;4.40;;;;;;;;;;6275501;22;20010;-80
2023/07/30 01:55:30;;;;;;;5.00;4.05;;;;;;;;;;6248516;22;20067;-80
2023/07/30 01:57:55;;;;;;;5.32;3.88;;;;;;;;;;6275319;22;20346;-80
2023/07/30 02:00:21;;;;;;;6.82;4.13;;;;;;;;;;6251632;22;20280;-80
2023/07/30 02:02:46;;;;;;;6.85;4.05;;;;;;;;;;6223689;22;20003;-81
2023/07/30 02:05:11;;;;;;;5.65;3.85;;;;;;;;;;6248599;22;20075;-80
2023/07/30 02:07:37;;;;;;;5.60;4.57;;;;;;;;;;6275490;22;20086;-80
2023/07/30 02:10:02;;;;;;;7.88;4.65;;;;;;;;;;6275526;22;20473;-80
2023/07/30 02:12:28;;;;;;;6.93;4.50;;;;;;;;;;6275078;22;20457;-81
2023/07/30 02:14:53;;;;;;;8.15;4.45;;;;;;;;;;6275039;22;19999;-81
2023/07/30 02:17:19;;;;;;;6.82;4.80;;;;;;;;;;6275208;22;20007;-80
2023/07/30 02:19:44;;;;;;;6.82;4.55;;;;;;;;;;6274943;22;20006;-80
2023/07/30 02:22:09;;;;;;;8.82;4.55;;;;;;;;;;6277757;22;20014;-79
2023/07/30 02:24:35;;;;;;;8.07;4.55;;;;;;;;;;6284952;22;20026;-81
2023/07/30 02:27:00;;;;;;;6.05;4.35;;;;;;;;;;6275167;22;19999;-80
2023/07/30 02:29:26;;;;;;;6.78;4.75;;;;;;;;;;6248448;22;19995;-80
2023/07/30 02:31:51;;;;;;;5.80;4.45;;;;;;;;;;6247906;22;20033;-80
2023/07/30 02:34:17;;;;;;;5.88;4.90;;;;;;;;;;6275049;22;20000;-80
2023/07/30 02:36:42;;;;;;;6.68;4.60;;;;;;;;;;6275326;22;20006;-80
2023/07/30 02:39:08;;;;;;;5.20;4.70;;;;;;;;;;6222977;22;20096;-80
2023/07/30 02:41:33;;;;;;;7.70;4.72;;;;;;;;;;6274884;22;20007;-80
2023/07/30 02:43:59;;;;;;;6.60;5.20;;;;;;;;;;6282233;22;19996;-80
2023/07/30 02:46:24;;;;;;;7.47;4.70;;;;;;;;;;6276400;22;20377;-81
2023/07/30 02:48:50;;;;;;;14.10;5.30;;;;;;;;;;6248392;22;20387;-81
2023/07/30 02:51:15;;;;;;;6.57;5.07;;;;;;;;;;6247917;22;20442;-80
2023/07/30 02:53:43;;;;;;;5.65;4.85;;;;;;;;;;6274846;22;20418;-81
2023/07/30 02:56:08;;;;;;;6.90;5.00;;;;;;;;;;6223038;22;20082;-81
2023/07/30 02:58:33;;;;;;;7.72;5.03;;;;;;;;;;6275315;22;20004;-81
2023/07/30 03:01:07;;;;;;;12.95;5.13;;;;;;;;;;6275098;22;20000;-81
2023/07/30 03:03:32;;;;;;;8.30;4.68;;;;;;;;;;6249579;22;20492;-79
2023/07/30 03:05:58;;;;;;;8.70;4.78;;;;;;;;;;6278023;22;20075;-80
2023/07/30 03:08:23;;;;;;;5.97;4.72;;;;;;;;;;6254872;22;20007;-80
2023/07/30 03:10:48;;;;;;;6.45;4.90;;;;;;;;;;6276657;22;20008;-80
2023/07/30 03:13:14;;;;;;;9.80;5.10;;;;;;;;;;6277022;22;20003;-80
2023/07/30 03:15:39;;;;;;;6.38;4.70;;;;;;;;;;6249837;22;20003;-80
2023/07/30 03:18:05;;;;;;;10.32;4.68;;;;;;;;;;6249882;22;20007;-80
2023/07/30 03:20:30;;;;;;;7.95;4.78;;;;;;;;;;6276597;22;20445;-79
2023/07/30 03:22:55;;;;;;;8.60;4.68;;;;;;;;;;6276722;22;20079;-80
2023/07/30 03:25:21;;;;;;;5.75;4.65;;;;;;;;;;6276570;22;20386;-80
2023/07/30 03:27:46;;;;;;;11.90;4.88;;;;;;;;;;6276359;22;20057;-80
2023/07/30 03:30:12;;;;;;;9.38;5.13;;;;;;;;;;6282139;22;20011;-79
2023/07/30 03:32:37;;;;;;;7.35;4.60;;;;;;;;;;6250321;22;20027;-80
2023/07/30 03:35:03;;;;;;;6.15;4.80;;;;;;;;;;6276696;22;20004;-79
2023/07/30 03:37:28;;;;;;;7.60;5.13;;;;;;;;;;6250242;22;19999;-81
2023/07/30 03:39:54;;;;;;;5.43;4.75;;;;;;;;;;6249805;22;20342;-81
2023/07/30 03:42:19;;;;;;;6.45;4.90;;;;;;;;;;6276600;22;20458;-80
2023/07/30 03:44:44;;;;;;;5.78;4.63;;;;;;;;;;6276570;22;20000;-81
2023/07/30 03:47:10;;;;;;;6.82;4.70;;;;;;;;;;6276624;22;20012;-80
2023/07/30 03:49:37;;;;;;;7.10;4.32;;;;;;;;;;6276928;22;20050;-80
2023/07/30 03:52:03;;;;;;;6.07;4.53;;;;;;;;;;6276522;22;20014;-80
2023/07/30 03:54:28;;;;;;;5.68;4.63;;;;;;;;;;6294023;22;19996;-80
2023/07/30 03:56:53;;;;;;;6.72;4.65;;;;;;;;;;6250074;22;20086;-80
2023/07/30 03:59:19;;;;;;;8.40;5.07;;;;;;;;;;6276384;22;20078;-80
2023/07/30 04:01:44;;;;;;;12.43;4.32;;;;;;;;;;6276404;22;20004;-80
2023/07/30 04:04:10;;;;;;;7.90;4.50;;;;;;;;;;6276675;22;19999;-82
2023/07/30 04:06:35;;;;;;;5.95;4.22;;;;;;;;;;6223810;22;20088;-81
2023/07/30 04:09:01;;;;;;;9.05;4.63;;;;;;;;;;6276180;22;20018;-81
2023/07/30 04:11:26;;;;;;;6.90;4.53;;;;;;;;;;6249872;22;20012;-82
2023/07/30 04:13:52;;;;;;;7.63;4.53;;;;;;;;;;6251478;22;20082;-81
2023/07/30 04:16:17;;;;;;;7.60;4.20;;;;;;;;;;6280264;22;20061;-81
2023/07/30 04:18:42;;;;;;;6.07;4.50;;;;;;;;;;6249617;22;20019;-81
2023/07/30 04:21:08;;;;;;;6.43;4.70;;;;;;;;;;6276587;22;20008;-81
2023/07/30 04:23:33;;;;;;;6.47;4.70;;;;;;;;;;6276178;22;19996;-82
2023/07/30 04:25:59;;;;;;;5.57;4.25;;;;;;;;;;6276454;22;20011;-81
2023/07/30 04:28:24;;;;;;;10.68;4.97;;;;;;;;;;6276528;22;20002;-81
2023/07/30 04:30:49;;;;;;;7.00;5.10;;;;;;;;;;6251771;22;20014;-81
2023/07/30 04:33:15;;;;;;;10.02;5.75;;;;;;;;;;6223646;22;20003;-81
2023/07/30 04:35:41;;;;;;;7.30;4.88;;;;;;;;;;6224379;22;20004;-80
2023/07/30 04:38:06;;;;;;;6.20;4.82;;;;;;;;;;6276176;22;20034;-81
2023/07/30 04:40:31;;;;;;;8.88;4.65;;;;;;;;;;6289512;22;20133;-81
2023/07/30 04:42:57;;;;;;;7.22;5.00;;;;;;;;;;6276669;22;20143;-80
2023/07/30 04:45:22;;;;;;;9.10;4.28;;;;;;;;;;6276270;22;20078;-78
2023/07/30 04:47:48;;;;;;;7.57;4.45;;;;;;;;;;6275993;22;20019;-80
2023/07/30 04:50:13;;;;;;;6.30;4.47;;;;;;;;;;6276118;22;20073;-79
2023/07/30 04:52:38;;;;;;;6.28;4.13;;;;;;;;;;6275951;22;20490;-79
2023/07/30 04:55:04;;;;;;;6.50;4.65;;;;;;;;;;6276055;22;20000;-82
2023/07/30 04:57:30;;;;;;;8.38;4.78;;;;;;;;;;6275817;22;20023;-83
2023/07/30 04:59:55;;;;;;;8.13;4.80;;;;;;;;;;6248891;22;20008;-80
2023/07/30 05:02:21;;;;;;;10.63;4.47;;;;;;;;;;6251932;22;20000;-79
2023/07/30 05:04:46;;;;;;;4.80;4.13;;;;;;;;;;6276133;22;20332;-81
2023/07/30 05:07:12;;;;;;;7.70;4.80;;;;;;;;;;6275694;22;20152;-79
2023/07/30 05:09:37;;;;;;;7.60;4.70;;;;;;;;;;6275999;22;19999;-79
2023/07/30 05:12:03;;;;;;;6.20;5.13;;;;;;;;;;6275630;22;20039;-79
2023/07/30 05:14:28;;;;;;;6.65;4.60;;;;;;;;;;6248847;22;20028;-79
2023/07/30 05:16:54;;;;;;;6.07;4.10;;;;;;;;;;6248848;22;20000;-80
2023/07/30 05:19:19;;;;;;;9.05;4.40;;;;;;;;;;6248512;22;20003;-81
2023/07/30 05:21:45;;;;;;;6.13;4.47;;;;;;;;;;6275742;22;20015;-80
2023/07/30 05:24:10;;;;;;;5.30;4.40;;;;;;;;;;6280755;22;20044;-79
2023/07/30 05:26:36;;;;;;;5.20;4.50;;;;;;;;;;6256031;22;20090;-80
2023/07/30 05:29:01;;;;;;;5.07;4.22;;;;;;;;;;6248821;22;20389;-80
2023/07/30 05:31:26;;;;;;;6.68;4.10;;;;;;;;;;6275642;22;20050;-79
2023/07/30 05:33:53;;;;;;;4.85;3.90;;;;;;;;;;6249140;22;20489;-79
2023/07/30 05:36:18;;;;;;;5.47;4.18;;;;;;;;;;6275734;22;19999;-80
2023/07/30 05:38:44;;;;;;;6.60;4.10;;;;;;;;;;6248691;22;20406;-81
2023/07/30 05:41:09;;;;;;;5.22;4.35;;;;;;;;;;6275851;22;20023;-81
2023/07/30 05:43:35;;;;;;;5.78;4.55;;;;;;;;;;6275484;22;20003;-81
2023/07/30 05:46:00;;;;;;;10.77;5.18;;;;;;;;;;6275343;22;20431;-82
2023/07/30 05:48:25;;;;;;;8.95;5.18;;;;;;;;;;6280406;22;20076;-81
2023/07/30 05:50:51;;;;;;;9.40;5.22;;;;;;;;;;6275551;22;20011;-81
2023/07/30 05:53:16;;;;;;;11.70;5.65;;;;;;;;;;6275826;22;20434;-82
2023/07/30 05:55:42;;;;;;;9.38;5.72;;;;;;;;;;6275689;22;20540;-81
2023/07/30 05:58:07;;;;;;;8.70;5.47;;;;;;;;;;6248328;22;20422;-80
2023/07/30 06:00:32;;;;;;;9.70;5.10;;;;;;;;;;6275560;22;20007;-80
2023/07/30 06:02:58;;;;;;;13.07;5.53;;;;;;;;;;6275168;22;20046;-79
2023/07/30 06:05:23;;;;;;;4.97;4.40;;;;;;;;;;6249784;22;19999;-79
2023/07/30 06:07:49;;;;;;;8.18;4.47;;;;;;;;;;6251009;22;20057;-80
2023/07/30 06:10:14;;;;;;;8.05;5.13;;;;;;;;;;6283399;22;20108;-80
2023/07/30 06:12:40;;;;;;;8.15;5.00;;;;;;;;;;6282870;22;20011;-80
2023/07/30 06:15:06;;;;;;;6.22;4.25;;;;;;;;;;6250156;22;20007;-81
2023/07/30 06:17:31;;;;;;;7.82;4.57;;;;;;;;;;6248408;22;20495;-81
2023/07/30 06:19:57;;;;;;;6.25;4.80;;;;;;;;;;6248152;22;20042;-81
2023/07/30 06:22:22;;;;;;;6.25;5.30;;;;;;;;;;6248153;22;20053;-80
2023/07/30 06:24:48;;;;;;;10.65;4.70;;;;;;;;;;6248446;22;20410;-81
2023/07/30 06:27:13;;;;;;;6.10;4.70;;;;;;;;;;6274878;22;20078;-82
2023/07/30 06:29:38;;;;;;;6.28;4.68;;;;;;;;;;6274797;22;20081;-81
2023/07/30 06:32:04;;;;;;;7.97;5.00;;;;;;;;;;6274798;22;20023;-81
2023/07/30 06:34:30;;;;;;;7.30;5.22;;;;;;;;;;6277168;22;20053;-82
2023/07/30 06:36:55;;;;;;;6.82;4.57;;;;;;;;;;6275161;22;20083;-83
2023/07/30 06:39:21;;;;;;;5.80;5.20;;;;;;;;;;6275162;22;20027;-81
2023/07/30 06:41:46;;;;;;;14.27;5.30;;;;;;;;;;6275289;22;20133;-81
2023/07/30 06:44:13;;;;;;;9.20;5.72;;;;;;;;;;6275128;22;20354;-83
2023/07/30 06:46:39;;;;;;;7.35;5.45;;;;;;;;;;6247819;22;20000;-83
2023/07/30 06:49:04;;;;;;;8.45;5.35;;;;;;;;;;6275287;22;19996;-81
2023/07/30 06:51:30;;;;;;;5.85;5.25;;;;;;;;;;6247849;22;20022;-81
2023/07/30 06:53:56;;;;;;;7.50;5.50;;;;;;;;;;6222435;22;20000;-80
2023/07/30 06:56:21;;;;;;;8.02;5.65;;;;;;;;;;6279887;22;20004;-81
2023/07/30 06:58:47;;;;;;;8.35;5.70;;;;;;;;;;6248577;22;20438;-80
2023/07/30 07:01:12;;;;;;;6.20;5.47;;;;;;;;;;6247769;22;20065;-80
2023/07/30 07:03:37;;;;;;;9.73;5.55;;;;;;;;;;6248061;22;20061;-81
2023/07/30 07:06:03;;;;;;;8.30;5.90;;;;;;;;;;6275076;22;20427;-83
2023/07/30 07:08:29;;;;;;;8.18;5.50;;;;;;;;;;6223055;22;19995;-82
2023/07/30 07:10:54;;;;;;;7.60;5.90;;;;;;;;;;6247601;22;20004;-81
2023/07/30 07:13:20;;;;;;;7.03;5.65;;;;;;;;;;6248036;22;20500;-80
2023/07/30 07:15:45;;;;;;;10.43;6.10;;;;;;;;;;6274637;22;20029;-79
2023/07/30 07:18:16;;;;;;;8.50;5.70;;;;;;;;;;6274563;22;20057;-81
2023/07/30 07:20:41;;;;;;;7.43;5.30;;;;;;;;;;6278331;22;20352;-81
2023/07/30 07:23:07;;;;;;;9.40;5.55;;;;;;;;;;6274702;22;19999;-80
2023/07/30 07:25:32;;;;;;;7.55;5.60;;;;;;;;;;6247875;22;20004;-81
2023/07/30 07:27:57;;;;;;;8.75;5.68;;;;;;;;;;6274921;22;20000;-81
2023/07/30 07:30:23;;;;;;;8.43;5.78;;;;;;;;;;6221889;22;20003;-81
2023/07/30 07:32:51;;;;;;;6.93;5.43;;;;;;;;;;6274877;22;19996;-81
2023/07/30 07:35:18;;;;;;;;;;;;;;;;;;6275790;22;20003;-81
2023/07/30 07:37:43;;;;;;;8.05;5.55;;;;;;;;;;6274590;22;19907;-81
2023/07/30 07:40:09;;;;;;;8.70;6.25;;;;;;;;;;6274399;22;20050;-81
2023/07/30 07:42:35;;;;;;;10.20;6.13;;;;;;;;;;6250272;22;20162;-81
2023/07/30 07:45:00;;;;;;;6.22;5.63;;;;;;;;;;6248688;22;19999;-81
2023/07/30 07:47:26;;;;;;;8.27;6.10;;;;;;;;;;6274632;22;20089;-80
2023/07/30 07:49:51;;;;;;;8.95;6.20;;;;;;;;;;6249239;22;20026;-80
2023/07/30 07:52:17;;;;;;;7.25;6.15;;;;;;;;;;6276058;22;20430;-80
2023/07/30 07:54:43;;;;;;;6.80;5.88;;;;;;;;;;6249531;22;20000;-81
2023/07/30 07:57:09;;;;;;;8.70;6.20;;;;;;;;;;6249599;22;20031;-80
2023/07/30 07:59:35;;;;;;;8.32;6.07;;;;;;;;;;6276210;22;20058;-81
2023/07/30 08:02:00;;;;;;;7.70;6.10;;;;;;;;;;6276372;22;20007;-81
2023/07/30 08:04:26;;;;;;;10.95;6.63;;;;;;;;;;6249529;22;20316;-82
2023/07/30 08:06:51;;;;;;;10.18;6.78;;;;;;;;;;6280950;22;20078;-82
2023/07/30 08:09:16;;;;;;;10.32;6.50;;;;;;;;;;6276905;22;19995;-82
2023/07/30 08:11:42;;;;;;;6.78;5.97;;;;;;;;;;6276449;22;20414;-82
2023/07/30 08:14:07;;;;;;;9.13;6.07;;;;;;;;;;6276483;22;20000;-81
2023/07/30 08:16:33;;;;;;;9.55;6.95;;;;;;;;;;6276078;22;20012;-81
2023/07/30 08:18:58;;;;;;;8.20;6.45;;;;;;;;;;6248571;22;20011;-81
2023/07/30 08:21:24;;;;;;;12.73;6.82;;;;;;;;;;6276452;22;20027;-80
2023/07/30 08:23:49;;;;;;;8.48;6.40;;;;;;;;;;6249464;22;20380;-81
2023/07/30 08:26:14;;;;;;;7.72;6.20;;;;;;;;;;6276659;22;20065;-82
2023/07/30 08:28:40;;;;;;;11.05;6.53;;;;;;;;;;6278136;22;20384;-79
2023/07/30 08:31:05;;;;;;;11.63;6.75;;;;;;;;;;6277520;22;20431;-80
2023/07/30 08:33:31;;;;;;;9.00;6.40;;;;;;;;;;6248566;22;20426;-81
2023/07/30 08:35:57;;;;;;;9.05;6.63;;;;;;;;;;6249252;22;20000;-81
2023/07/30 08:38:23;;;;;;;9.93;7.00;;;;;;;;;;6276333;22;19996;-81
2023/07/30 08:40:48;;;;;;;12.73;7.25;;;;;;;;;;6248754;22;20422;-81
2023/07/30 08:43:14;;;;;;;9.80;6.80;;;;;;;;;;6223871;22;19992;-82
2023/07/30 08:45:39;;;;;;;10.57;6.25;;;;;;;;;;6224635;22;20082;-81
2023/07/30 08:48:05;;;;;;;7.03;5.75;;;;;;;;;;6276421;22;20053;-82
2023/07/30 08:50:30;;;;;;;10.00;6.10;;;;;;;;;;6223322;22;20444;-81
2023/07/30 08:52:55;;;;;;;11.70;6.40;;;;;;;;;;6252784;22;20055;-82
2023/07/30 08:55:21;;;;;;;10.95;6.65;;;;;;;;;;6250905;22;20118;-82
2023/07/30 08:57:46;;;;;;;9.18;6.40;;;;;;;;;;6278634;22;20404;-82
2023/07/30 09:00:12;;;;;;;10.52;6.50;;;;;;;;;;6228387;22;20011;-82
2023/07/30 09:02:48;;;;;;;8.85;6.68;;;;;;;;;;6258850;22;20030;-83
2023/07/30 09:05:13;;;;;;;12.57;7.00;;;;;;;;;;6252592;22;20002;-82
2023/07/30 09:07:39;;;;;;;12.85;6.60;;;;;;;;;;6275976;22;20007;-83
2023/07/30 09:10:06;;;;;;;6.97;5.70;;;;;;;;;;6274539;22;20023;-82
2023/07/30 09:12:35;;;;;;;12.30;6.47;;;;;;;;;;6264822;22;20350;-83
2023/07/30 09:15:03;;;;;;;11.73;6.75;;;;;;;;;;6243783;22;20052;-82
2023/07/30 09:17:28;;;;;;;9.52;6.18;;;;;;;;;;6275801;22;20033;-81
2023/07/30 09:19:53;;;;;;;13.85;5.80;;;;;;;;;;6248789;22;20004;-81
2023/07/30 09:22:26;;;;;;;8.82;5.82;;;;;;;;;;6224213;22;20008;-82
2023/07/30 09:24:55;;;;;;;9.85;6.35;;;;;;;;;;6248909;22;20019;-82
2023/07/30 09:27:22;;;;;;;10.55;6.22;;;;;;;;;;6223580;22;20414;-82
2023/07/30 09:29:52;;;;;;;9.65;5.78;;;;;;;;;;6248863;22;20430;-82
2023/07/30 09:32:18;;;;;;;12.15;6.10;;;;;;;;;;6248402;22;20017;-81
2023/07/30 09:34:51;;;;;;;8.38;5.93;;;;;;;;;;6277338;22;20003;-82
2023/07/30 09:37:16;;;;;;;8.13;6.35;;;;;;;;;;6280505;22;20388;-82
2023/07/30 09:39:42;;;;;;;11.90;6.30;;;;;;;;;;6275268;22;20003;-82
2023/07/30 09:42:07;;;;;;;9.40;7.65;;;;;;;;;;6223380;22;20090;-82
2023/07/30 09:44:35;;;;;;;11.90;7.95;;;;;;;;;;6223287;22;20007;-82
2023/07/30 09:47:04;;;;;;;;;;;;;;;;;;6224374;22;20026;-82
2023/07/30 09:49:30;;;;;;;12.32;9.02;;;;;;;;;;6275608;22;19907;-83
2023/07/30 09:51:55;;;;;;;11.85;9.10;;;;;;;;;;6275489;22;20014;-83
2023/07/30 09:54:22;;;;;;;10.05;9.00;;;;;;;;;;6223401;22;20319;-81
2023/07/30 09:56:47;;;;;;;15.07;9.93;;;;;;;;;;6275366;22;20003;-82
2023/07/30 09:59:13;;;;;;;10.90;9.15;;;;;;;;;;6258738;22;19999;-81
2023/07/30 10:01:43;;;;;;;12.65;8.32;;;;;;;;;;6275822;22;20003;-82
2023/07/30 10:04:09;;;;;;;11.80;8.80;;;;;;;;;;6248850;22;20007;-82
2023/07/30 10:06:36;;;;;;;15.25;9.20;;;;;;;;;;6248673;22;20080;-82
2023/07/30 10:09:02;;;;;;;13.52;10.13;;;;;;;;;;6248388;22;20019;-82
2023/07/30 10:11:27;;;;;;;10.63;8.93;;;;;;;;;;6247525;22;20000;-82
2023/07/30 10:13:53;;;;;;;10.60;9.43;;;;;;;;;;6248163;22;20004;-82
2023/07/30 10:16:18;;;;;;;14.02;10.48;;;;;;;;;;6223237;22;20003;-82
2023/07/30 10:18:44;;;;;;;14.13;10.27;;;;;;;;;;6275750;22;20000;-82
2023/07/30 10:21:10;;;;;;;13.68;10.18;;;;;;;;;;6249995;22;19999;-82
2023/07/30 10:23:36;;;;;;;15.55;10.52;;;;;;;;;;6225461;22;20007;-81
2023/07/30 10:26:10;;;;;;;12.50;10.25;;;;;;;;;;6222566;22;20038;-82
2023/07/30 10:28:38;;;;;;;14.10;10.43;;;;;;;;;;6248096;22;20011;-82
2023/07/30 10:31:13;;;;;;;13.13;10.57;;;;;;;;;;6275337;22;20509;-82
2023/07/30 10:33:56;;;;;;;11.57;10.18;;;;;;;;;;6224222;22;20082;-82
2023/07/30 10:36:32;;;;;;;18.35;10.63;;;;;;;;;;6275040;22;20418;-81
2023/07/30 10:38:58;;;;;;;11.68;10.48;;;;;;;;;;6248469;22;20007;-81
2023/07/30 10:41:24;;;;;;;12.07;10.05;;;;;;;;;;6222960;22;20620;-81
2023/07/30 10:43:50;;;;;;;11.90;10.55;;;;;;;;;;6223764;22;20366;-80
2023/07/30 10:46:18;;;;;;;14.27;10.88;;;;;;;;;;6202759;22;20000;-82
2023/07/30 10:48:44;;;;;;;;;;;;;;;;;;6248891;22;20046;-82
2023/07/30 10:51:14;;;;;;;14.43;10.40;;;;;;;;;;6274714;22;19911;-82
2023/07/30 10:53:44;;;;;;;18.13;11.95;;;;;;;;;;6274828;22;20075;-82
2023/07/30 10:56:10;;;;;;;17.20;11.07;;;;;;;;;;6274784;22;20031;-81
2023/07/30 10:58:36;;;;;;;13.98;10.93;;;;;;;;;;6274802;22;19999;-81
2023/07/30 11:01:02;;;;;;;13.65;12.13;;;;;;;;;;6248335;22;20031;-81
2023/07/30 11:03:27;;;;;;;14.93;11.80;;;;;;;;;;6248294;22;20008;-82
2023/07/30 11:05:54;;;;;;;14.63;11.60;;;;;;;;;;6275508;22;20441;-81
2023/07/30 11:08:31;;;;;;;15.68;11.90;;;;;;;;;;6280257;22;20405;-80
2023/07/30 11:10:57;;;;;;;17.15;11.85;;;;;;;;;;6275638;22;20347;-82
2023/07/30 11:13:22;;;;;;;14.85;11.73;;;;;;;;;;6247589;22;20083;-82
2023/07/30 11:15:47;;;;;;;14.07;11.90;;;;;;;;;;6275320;22;20014;-81
2023/07/30 11:18:13;;;;;;;14.02;12.05;;;;;;;;;;6275142;22;20000;-82
2023/07/30 11:20:39;;;;;;;14.43;11.23;;;;;;;;;;6275159;22;20012;-81
2023/07/30 11:23:37;;;;;;;21.75;11.88;;;;;;;;;;6275313;22;20423;-83
2023/07/30 11:26:05;;;;;;;15.70;11.63;;;;;;;;;;6144188;22;20015;-82
2023/07/30 11:28:32;;;;;;;16.88;12.25;;;;;;;;;;6224836;22;20338;-81
2023/07/30 11:31:05;;;;;;;21.00;11.80;;;;;;;;;;6284214;22;20434;-81
2023/07/30 11:33:30;;;;;;;13.75;11.27;;;;;;;;;;6280432;22;20004;-81
2023/07/30 11:35:56;;;;;;;18.10;11.70;;;;;;;;;;6250263;22;20014;-82
2023/07/30 11:38:26;;;;;;;14.13;12.35;;;;;;;;;;6249998;22;20457;-82
2023/07/30 11:40:52;;;;;;;15.73;12.82;;;;;;;;;;6276995;22;20058;-82
2023/07/30 11:43:18;;;;;;;17.05;12.75;;;;;;;;;;6276907;22;20073;-82
2023/07/30 11:45:44;;;;;;;17.00;12.38;;;;;;;;;;6250081;22;20031;-82
2023/07/30 11:48:10;;;;;;;15.10;13.00;;;;;;;;;;6225573;22;20364;-82
2023/07/30 11:50:49;;;;;;;18.35;12.68;;;;;;;;;;6289100;22;20015;-81
2023/07/30 11:53:14;;;;;;;;;;;;;;;;;;6232206;22;19996;-81
2023/07/30 11:55:40;;;;;;;18.52;13.50;;;;;;;;;;6255473;22;19939;-81
2023/07/30 11:58:06;;;;;;;17.88;12.95;;;;;;;;;;6199689;22;20003;-81
2023/07/30 12:00:32;;;;;;;18.38;12.60;;;;;;;;;;6249758;22;20083;-81
2023/07/30 12:03:04;;;;;;;15.60;12.43;;;;;;;;;;6249599;22;20053;-82
2023/07/30 12:05:34;;;;;;;19.52;13.00;;;;;;;;;;6276257;22;20003;-80
2023/07/30 12:08:02;;;;;;;19.35;13.05;;;;;;;;;;6249266;22;20015;-82
2023/07/30 12:10:28;;;;;;;20.20;13.32;;;;;;;;;;6276774;22;20000;-81
2023/07/30 12:12:53;;;;;;;18.00;13.30;;;;;;;;;;6276550;22;20331;-81
2023/07/30 12:15:37;;;;;;;19.08;12.82;;;;;;;;;;6276055;22;20327;-82
2023/07/30 12:18:03;;;;;;;15.55;12.60;;;;;;;;;;6284409;22;20000;-83
2023/07/30 12:20:28;;;;;;;15.25;12.52;;;;;;;;;;6280176;22;20073;-81
2023/07/30 12:22:54;;;;;;;17.75;13.23;;;;;;;;;;6276794;22;20011;-81
2023/07/30 12:25:19;;;;;;;17.08;12.63;;;;;;;;;;6276374;22;20030;-82
2023/07/30 12:27:45;;;;;;;18.58;13.50;;;;;;;;;;6276036;22;20090;-81
2023/07/30 12:30:10;;;;;;;18.20;13.80;;;;;;;;;;6223789;22;20049;-81
2023/07/30 12:32:36;;;;;;;17.30;13.27;;;;;;;;;;6276632;22;20011;-81
2023/07/30 12:35:01;;;;;;;18.05;13.73;;;;;;;;;;6277425;22;20011;-81
2023/07/30 12:37:27;;;;;;;17.40;13.25;;;;;;;;;;6275240;22;20090;-82
2023/07/30 12:39:52;;;;;;;18.25;13.55;;;;;;;;;;6250359;22;20006;-81
2023/07/30 12:42:18;;;;;;;20.00;14.05;;;;;;;;;;6284352;22;20066;-81
2023/07/30 12:44:43;;;;;;;16.95;12.98;;;;;;;;;;6277465;22;20034;-81
2023/07/30 12:47:09;;;;;;;18.10;13.60;;;;;;;;;;6276268;22;20010;-81
2023/07/30 12:49:34;;;;;;;16.65;13.27;;;;;;;;;;6276273;22;20061;-79
2023/07/30 12:52:00;;;;;;;16.75;13.35;;;;;;;;;;6250032;22;20019;-80
2023/07/30 12:54:25;;;;;;;19.13;13.00;;;;;;;;;;6248653;22;20030;-79
2023/07/30 12:56:51;;;;;;;18.27;13.63;;;;;;;;;;6275854;22;20004;-79
2023/07/30 12:59:16;;;;;;;17.40;13.90;;;;;;;;;;6276072;22;20000;-80
2023/07/30 13:01:42;;;;;;;21.48;13.63;;;;;;;;;;6276453;22;20007;-83
2023/07/30 13:04:07;;;;;;;17.20;13.73;;;;;;;;;;6284174;22;19996;-82
2023/07/30 13:06:32;;;;;;;21.15;14.05;;;;;;;;;;6276596;22;20000;-80
2023/07/30 13:08:58;;;;;;;18.77;14.10;;;;;;;;;;6275654;22;20004;-80
2023/07/30 13:11:23;;;;;;;20.88;14.70;;;;;;;;;;6275751;22;20050;-80
2023/07/30 13:13:49;;;;;;;27.13;14.23;;;;;;;;;;6248901;22;20051;-80
2023/07/30 13:16:14;;;;;;;17.25;14.15;;;;;;;;;;6275611;22;20365;-80
2023/07/30 13:18:39;;;;;;;15.95;13.90;;;;;;;;;;6248609;22;20097;-81
2023/07/30 13:21:05;;;;;;;18.60;13.77;;;;;;;;;;6276076;22;20069;-82
2023/07/30 13:23:31;;;;;;;16.52;13.85;;;;;;;;;;6248975;22;20004;-82
2023/07/30 13:25:57;;;;;;;19.45;15.68;;;;;;;;;;6253748;22;20004;-81
2023/07/30 13:28:23;;;;;;;17.65;15.20;;;;;;;;;;6287446;22;20528;-81
2023/07/30 13:30:50;;;;;;;19.98;14.43;;;;;;;;;;6277197;22;20069;-82
2023/07/30 13:33:16;;;;;;;22.67;14.50;;;;;;;;;;6275449;22;20004;-82
2023/07/30 13:35:41;;;;;;;18.42;14.27;;;;;;;;;;6275627;22;20038;-82
2023/07/30 13:38:07;;;;;;;21.42;14.75;;;;;;;;;;6275378;22;20007;-82
2023/07/30 13:40:32;;;;;;;20.65;15.32;;;;;;;;;;6275731;22;20012;-82
2023/07/30 13:42:57;;;;;;;22.45;14.25;;;;;;;;;;6248852;22;20035;-83
2023/07/30 13:45:23;;;;;;;17.23;14.25;;;;;;;;;;6275340;22;20004;-82
2023/07/30 13:47:48;;;;;;;17.42;14.30;;;;;;;;;;6248260;22;20335;-81
2023/07/30 13:50:14;;;;;;;18.85;14.65;;;;;;;;;;6235163;22;20004;-81
2023/07/30 13:52:39;;;;;;;20.48;14.90;;;;;;;;;;6277940;22;20053;-82
2023/07/30 13:55:05;;;;;;;20.13;14.07;;;;;;;;;;6275325;22;19999;-81
2023/07/30 13:57:30;;;;;;;21.42;15.00;;;;;;;;;;6275160;22;20003;-82
2023/07/30 13:59:56;;;;;;;20.10;15.23;;;;;;;;;;6275176;22;20007;-82
2023/07/30 14:02:21;;;;;;;20.45;14.50;;;;;;;;;;6275414;22;20007;-81
2023/07/30 14:04:47;;;;;;;18.23;14.98;;;;;;;;;;6275926;22;20007;-81
2023/07/30 14:07:12;;;;;;;17.65;14.98;;;;;;;;;;6275633;22;20427;-81
2023/07/30 14:09:37;;;;;;;20.08;14.35;;;;;;;;;;6275101;22;20004;-81
2023/07/30 14:12:03;;;;;;;20.58;13.85;;;;;;;;;;6275813;22;20079;-81
2023/07/30 14:14:29;;;;;;;18.10;13.68;;;;;;;;;;6279849;22;20004;-82
2023/07/30 14:16:54;;;;;;;18.13;13.10;;;;;;;;;;6275162;22;20377;-81
2023/07/30 14:19:20;;;;;;;17.33;13.13;;;;;;;;;;6275056;22;20419;-80
2023/07/30 14:21:45;;;;;;;15.25;13.38;;;;;;;;;;6248296;22;20004;-81
2023/07/30 14:24:11;;;;;;;19.58;13.23;;;;;;;;;;6274784;22;19992;-80
2023/07/30 14:26:36;;;;;;;19.33;14.05;;;;;;;;;;6222848;22;20067;-81
2023/07/30 14:29:02;;;;;;;20.70;13.15;;;;;;;;;;6275069;22;19999;-82